createdAt,value
2022-07-31T00:00:19.258Z,16.44
2022-07-31T00:02:46.782Z,16.47
2022-07-31T00:05:13.958Z,16.40
2022-07-31T00:07:40.937Z,16.41
2022-07-31T00:10:08.181Z,16.36
2022-07-31T00:12:35.214Z,16.37
2022-07-31T00:15:04.324Z,16.34
2022-07-31T00:17:32.771Z,16.33
2022-07-31T00:19:59.623Z,16.31
2022-07-31T00:22:26.393Z,16.28
2022-07-31T00:24:53.124Z,16.22
2022-07-31T00:27:19.902Z,16.28
2022-07-31T00:29:46.742Z,16.25
2022-07-31T00:32:13.492Z,16.26
2022-07-31T00:34:40.213Z,16.20
2022-07-31T00:37:07.119Z,16.22
2022-07-31T00:39:34.189Z,16.19
2022-07-31T00:42:00.839Z,16.24
2022-07-31T00:44:27.613Z,16.18
2022-07-31T00:46:54.612Z,16.17
2022-07-31T00:49:22.313Z,16.30
2022-07-31T00:51:49.223Z,16.28
2022-07-31T00:54:23.049Z,16.34
2022-07-31T00:56:51.263Z,16.16
2022-07-31T00:59:24.305Z,16.20
2022-07-31T01:01:51.770Z,16.20
2022-07-31T01:04:19.057Z,16.20
2022-07-31T01:06:47.262Z,16.15
2022-07-31T01:09:14.722Z,16.07
2022-07-31T01:11:50.651Z,16.03
2022-07-31T01:14:20.641Z,15.99
2022-07-31T01:16:49.972Z,15.91
2022-07-31T01:19:39.671Z,15.86
2022-07-31T01:22:33.362Z,15.86
2022-07-31T01:25:07.812Z,15.80
2022-07-31T01:28:14.007Z,15.67
2022-07-31T01:30:53.023Z,15.72
2022-07-31T01:33:32.752Z,15.65
2022-07-31T01:36:06.703Z,15.62
2022-07-31T01:38:42.417Z,15.58
2022-07-31T01:41:14.971Z,15.56
2022-07-31T01:43:44.284Z,15.59
2022-07-31T01:46:14.059Z,15.49
2022-07-31T01:48:41.574Z,15.44
2022-07-31T01:51:09.812Z,15.43
2022-07-31T01:53:39.036Z,15.45
2022-07-31T01:56:07.501Z,15.56
2022-07-31T01:58:38.041Z,15.51
2022-07-31T02:01:08.918Z,15.45
2022-07-31T02:03:43.891Z,15.40
2022-07-31T02:06:17.106Z,15.40
2022-07-31T02:08:50.446Z,15.43
2022-07-31T02:11:19.995Z,15.56
2022-07-31T02:13:48.325Z,15.63
2022-07-31T02:16:17.369Z,15.66
2022-07-31T02:18:44.122Z,15.66
2022-07-31T02:21:11.054Z,15.58
2022-07-31T02:23:38.481Z,15.37
2022-07-31T02:26:07.181Z,15.28
2022-07-31T02:28:37.947Z,15.37
2022-07-31T02:31:10.194Z,15.31
2022-07-31T02:33:38.106Z,15.28
2022-07-31T02:36:06.615Z,15.24
2022-07-31T02:38:34.782Z,15.16
2022-07-31T02:41:05.098Z,15.08
2022-07-31T02:43:34.886Z,15.04
2022-07-31T02:46:03.214Z,15.00
2022-07-31T02:48:30.991Z,14.96
2022-07-31T02:50:58.443Z,14.93
2022-07-31T02:53:25.690Z,14.98
2022-07-31T02:55:52.801Z,15.01
2022-07-31T02:58:19.993Z,14.95
2022-07-31T03:00:46.934Z,14.95
2022-07-31T03:03:14.114Z,14.92
2022-07-31T03:05:40.968Z,14.95
2022-07-31T03:08:07.696Z,14.94
2022-07-31T03:10:34.522Z,14.94
2022-07-31T03:13:02.675Z,14.91
2022-07-31T03:15:32.032Z,14.82
2022-07-31T03:17:59.148Z,14.86
2022-07-31T03:20:26.919Z,14.84
2022-07-31T03:22:53.980Z,14.83
2022-07-31T03:25:21.915Z,14.80
2022-07-31T03:27:56.142Z,14.73
2022-07-31T03:30:27.415Z,14.73
2022-07-31T03:32:57.833Z,14.73
2022-07-31T03:35:25.353Z,14.74
2022-07-31T03:37:55.597Z,14.71
2022-07-31T03:40:22.461Z,14.73
2022-07-31T03:42:50.260Z,14.74
2022-07-31T03:45:18.688Z,14.88
2022-07-31T03:47:45.462Z,14.89
2022-07-31T03:50:13.276Z,14.91
2022-07-31T03:52:40.144Z,14.98
2022-07-31T03:55:08.493Z,15.03
2022-07-31T03:57:37.208Z,15.12
2022-07-31T04:00:07.921Z,15.16
2022-07-31T04:02:44.497Z,15.16
2022-07-31T04:05:11.400Z,15.25
2022-07-31T04:07:38.095Z,15.30
2022-07-31T04:10:05.159Z,15.40
2022-07-31T04:12:31.858Z,15.41
2022-07-31T04:14:58.587Z,15.51
2022-07-31T04:17:25.426Z,15.62
2022-07-31T04:19:52.186Z,15.67
2022-07-31T04:22:19.118Z,15.76
2022-07-31T04:24:45.804Z,15.93
2022-07-31T04:27:15.081Z,16.12
2022-07-31T04:29:42.022Z,16.19
2022-07-31T04:32:08.727Z,16.31
2022-07-31T04:34:36.005Z,16.43
2022-07-31T04:37:03.226Z,16.45
2022-07-31T04:39:30.103Z,16.57
2022-07-31T04:41:56.975Z,16.64
2022-07-31T04:44:23.979Z,16.63
2022-07-31T04:46:50.766Z,16.65
2022-07-31T04:49:17.670Z,16.69
2022-07-31T04:51:44.512Z,16.80
2022-07-31T04:54:11.339Z,16.78
2022-07-31T04:56:42.160Z,16.81
2022-07-31T04:59:11.831Z,16.84
2022-07-31T05:01:39.602Z,16.89
2022-07-31T05:04:08.182Z,16.93
2022-07-31T05:06:47.098Z,16.89
2022-07-31T05:09:23.577Z,16.88
2022-07-31T05:11:52.947Z,16.87
2022-07-31T05:14:21.461Z,16.92
2022-07-31T05:16:48.728Z,16.95
2022-07-31T05:19:15.846Z,17.05
2022-07-31T05:21:54.069Z,17.08
2022-07-31T05:24:33.396Z,17.17
2022-07-31T05:27:02.369Z,17.19
2022-07-31T05:29:29.711Z,17.22
2022-07-31T05:31:59.725Z,17.30
2022-07-31T05:34:36.815Z,17.21
2022-07-31T05:37:03.906Z,17.10
2022-07-31T05:39:30.913Z,17.21
2022-07-31T05:41:57.737Z,17.39
2022-07-31T05:44:24.712Z,17.48
2022-07-31T05:49:18.027Z,17.54
2022-07-31T05:51:45.441Z,17.51
2022-07-31T05:54:12.285Z,17.44
2022-07-31T05:56:39.141Z,17.58
2022-07-31T05:59:05.926Z,17.74
2022-07-31T06:01:32.861Z,17.88
2022-07-31T06:03:59.762Z,18.03
2022-07-31T06:06:26.514Z,17.74
2022-07-31T06:08:53.192Z,17.91
2022-07-31T06:11:20.228Z,18.12
2022-07-31T06:13:46.919Z,18.09
2022-07-31T06:16:14.970Z,18.18
2022-07-31T06:18:42.532Z,18.30
2022-07-31T06:21:09.735Z,18.35
2022-07-31T06:23:36.576Z,18.50
2022-07-31T06:26:04.287Z,18.68
2022-07-31T06:28:47.913Z,18.70
2022-07-31T06:31:20.838Z,18.97
2022-07-31T06:33:51.003Z,19.02
2022-07-31T06:36:19.492Z,19.24
2022-07-31T06:38:46.375Z,19.35
2022-07-31T06:41:33.574Z,19.05
2022-07-31T06:44:00.353Z,19.43
2022-07-31T06:46:27.126Z,19.47
2022-07-31T06:48:53.880Z,19.68
2022-07-31T06:51:30.707Z,19.47
2022-07-31T06:53:59.567Z,19.87
2022-07-31T06:56:26.273Z,19.94
2022-07-31T06:58:53.340Z,19.90
2022-07-31T07:01:20.193Z,19.77
2022-07-31T07:03:47.607Z,19.85
2022-07-31T07:06:14.992Z,19.80
2022-07-31T07:08:42.521Z,20.02
2022-07-31T07:11:12.311Z,19.90
2022-07-31T07:13:45.876Z,20.57
2022-07-31T07:16:14.693Z,21.01
2022-07-31T07:18:41.469Z,21.21
2022-07-31T07:21:08.167Z,21.21
2022-07-31T07:23:35.902Z,20.77
2022-07-31T07:26:03.091Z,20.88
2022-07-31T07:28:31.119Z,21.40
2022-07-31T07:30:58.113Z,21.44
2022-07-31T07:33:39.728Z,21.76
2022-07-31T07:36:08.960Z,22.03
2022-07-31T07:38:55.611Z,21.98
2022-07-31T07:41:24.282Z,22.55
2022-07-31T07:43:52.378Z,22.52
2022-07-31T07:46:23.548Z,22.92
2022-07-31T07:48:51.677Z,22.87
2022-07-31T07:51:19.506Z,22.76
2022-07-31T07:53:46.549Z,22.86
2022-07-31T07:56:13.262Z,22.70
2022-07-31T07:58:40.774Z,22.90
2022-07-31T08:01:07.759Z,22.36
2022-07-31T08:03:48.967Z,22.49
2022-07-31T08:06:20.192Z,22.36
2022-07-31T08:08:47.412Z,22.41
2022-07-31T08:11:17.461Z,22.49
2022-07-31T08:13:50.074Z,22.40
2022-07-31T08:16:17.147Z,22.53
2022-07-31T08:18:43.828Z,22.51
2022-07-31T08:21:10.602Z,22.21
2022-07-31T08:23:37.811Z,22.57
2022-07-31T08:26:04.608Z,22.17
2022-07-31T08:28:33.409Z,22.44
2022-07-31T08:31:01.879Z,22.31
2022-07-31T08:33:28.708Z,22.53
2022-07-31T08:35:55.665Z,22.81
2022-07-31T08:38:22.373Z,22.99
2022-07-31T08:40:49.164Z,23.15
2022-07-31T08:46:04.678Z,23.36
2022-07-31T08:48:33.279Z,23.30
2022-07-31T08:51:03.465Z,23.06
2022-07-31T08:53:32.974Z,23.29
2022-07-31T08:56:00.491Z,23.17
2022-07-31T08:58:27.355Z,23.71
2022-07-31T09:00:54.911Z,23.66
2022-07-31T09:03:21.711Z,23.51
2022-07-31T09:05:48.878Z,23.56
2022-07-31T09:08:15.779Z,24.05
2022-07-31T09:10:49.103Z,24.43
2022-07-31T09:13:18.150Z,24.92
2022-07-31T09:15:45.211Z,25.34
2022-07-31T09:18:22.137Z,25.35
2022-07-31T09:20:58.197Z,25.96
2022-07-31T09:23:26.573Z,26.01
2022-07-31T09:26:07.537Z,26.75
2022-07-31T09:28:39.535Z,26.46
2022-07-31T09:31:08.773Z,26.73
2022-07-31T09:33:45.210Z,26.77
2022-07-31T09:36:13.704Z,26.71
2022-07-31T09:38:43.272Z,26.81
2022-07-31T09:41:23.160Z,27.47
2022-07-31T09:44:10.544Z,28.29
2022-07-31T09:46:46.655Z,28.37
2022-07-31T09:49:14.372Z,28.03
2022-07-31T09:51:43.246Z,28.33
2022-07-31T09:54:27.315Z,28.14
2022-07-31T09:56:54.092Z,28.11
2022-07-31T09:59:21.056Z,28.44
2022-07-31T10:01:49.130Z,28.84
2022-07-31T10:04:21.358Z,29.05
2022-07-31T10:06:51.176Z,29.51
2022-07-31T10:09:21.608Z,29.74
2022-07-31T10:11:50.143Z,29.93
2022-07-31T10:14:22.455Z,29.22
2022-07-31T10:16:52.672Z,29.95
2022-07-31T10:19:20.669Z,30.19
2022-07-31T10:21:57.193Z,29.90
2022-07-31T10:24:28.289Z,30.37
2022-07-31T10:27:10.842Z,29.96
2022-07-31T10:29:40.514Z,29.94
2022-07-31T10:32:11.507Z,30.68
2022-07-31T10:34:38.976Z,30.86
2022-07-31T10:37:34.843Z,31.37
2022-07-31T10:40:06.674Z,30.71
2022-07-31T10:42:42.898Z,30.49
2022-07-31T10:45:16.567Z,29.73
2022-07-31T10:47:57.304Z,29.01
2022-07-31T10:50:25.900Z,30.10
2022-07-31T10:52:57.290Z,29.95
2022-07-31T10:55:27.198Z,30.38
2022-07-31T10:57:56.203Z,30.45
2022-07-31T11:00:28.523Z,30.23
2022-07-31T11:02:57.001Z,28.93
2022-07-31T11:05:28.572Z,29.36
2022-07-31T11:08:06.165Z,29.39
2022-07-31T11:10:34.153Z,29.03
2022-07-31T11:13:07.491Z,29.49
2022-07-31T11:15:34.759Z,29.96
2022-07-31T11:18:24.868Z,30.72
2022-07-31T11:21:09.474Z,30.83
2022-07-31T11:23:57.672Z,31.28
2022-07-31T11:26:33.294Z,29.68
2022-07-31T11:29:58.942Z,29.92
2022-07-31T11:31:55.545Z,30.01
2022-07-31T11:34:22.407Z,30.25
2022-07-31T11:36:51.722Z,29.60
2022-07-31T11:39:19.049Z,29.38
2022-07-31T11:41:53.667Z,30.15
2022-07-31T11:44:21.810Z,30.37
2022-07-31T11:46:50.147Z,30.31
2022-07-31T11:49:41.666Z,30.53
2022-07-31T11:52:31.073Z,31.14
2022-07-31T11:55:10.955Z,30.54
2022-07-31T11:57:52.292Z,30.81
2022-07-31T12:00:26.662Z,30.83
2022-07-31T12:02:57.391Z,31.04
2022-07-31T12:05:37.616Z,31.01
2022-07-31T12:08:08.002Z,31.66
2022-07-31T12:10:35.332Z,31.04
2022-07-31T12:13:02.987Z,31.12
2022-07-31T12:15:29.832Z,31.14
2022-07-31T12:18:05.280Z,31.04
2022-07-31T12:20:37.248Z,31.48
2022-07-31T12:23:05.703Z,30.61
2022-07-31T12:25:46.437Z,30.94
2022-07-31T12:28:14.690Z,31.37
2022-07-31T12:30:42.443Z,31.31
2022-07-31T12:33:11.485Z,31.24
2022-07-31T12:35:56.284Z,30.33
2022-07-31T12:38:41.063Z,30.31
2022-07-31T12:41:12.694Z,30.85
2022-07-31T12:43:43.848Z,31.19
2022-07-31T12:46:23.148Z,30.66
2022-07-31T12:48:50.232Z,30.03
2022-07-31T12:51:20.221Z,31.14
2022-07-31T12:54:08.010Z,30.47
2022-07-31T12:56:37.158Z,29.65
2022-07-31T12:59:04.708Z,29.06
2022-07-31T13:01:31.823Z,30.35
2022-07-31T13:03:59.002Z,30.61
2022-07-31T13:06:30.486Z,30.66
2022-07-31T13:08:57.770Z,30.50
2022-07-31T13:11:46.822Z,29.83
2022-07-31T13:14:19.628Z,28.91
2022-07-31T13:16:47.799Z,29.35
2022-07-31T13:19:15.477Z,29.08
2022-07-31T13:21:48.488Z,28.77
2022-07-31T13:24:21.133Z,29.44
2022-07-31T13:26:49.907Z,30.38
2022-07-31T13:29:17.725Z,29.95
2022-07-31T13:31:44.796Z,29.57
2022-07-31T13:34:11.875Z,29.19
2022-07-31T13:36:39.782Z,29.04
2022-07-31T13:39:08.196Z,29.02
2022-07-31T13:41:35.620Z,28.69
2022-07-31T13:44:03.266Z,28.54
2022-07-31T13:46:31.593Z,28.39
2022-07-31T13:49:01.033Z,28.06
2022-07-31T13:51:29.454Z,27.93
2022-07-31T13:53:56.274Z,27.94
2022-07-31T13:56:39.637Z,27.85
2022-07-31T13:59:13.604Z,28.05
2022-07-31T14:02:03.359Z,27.91
2022-07-31T14:04:30.323Z,27.93
2022-07-31T14:07:04.272Z,27.84
2022-07-31T14:09:34.679Z,27.90
2022-07-31T14:12:03.826Z,27.71
2022-07-31T14:14:32.387Z,27.72
2022-07-31T14:16:59.143Z,28.11
2022-07-31T14:19:26.032Z,27.80
2022-07-31T14:21:56.423Z,27.66
2022-07-31T14:24:24.978Z,27.70
2022-07-31T14:26:51.794Z,27.78
2022-07-31T14:29:18.688Z,28.00
2022-07-31T14:31:45.371Z,27.86
2022-07-31T14:34:12.096Z,28.11
2022-07-31T14:36:38.976Z,27.83
2022-07-31T14:39:05.957Z,27.63
2022-07-31T14:41:32.697Z,27.91
2022-07-31T14:43:59.964Z,28.17
2022-07-31T14:46:26.739Z,28.24
2022-07-31T14:48:53.895Z,28.06
2022-07-31T14:51:20.803Z,27.79
2022-07-31T14:53:47.910Z,27.43
2022-07-31T14:56:19.301Z,27.55
2022-07-31T14:58:57.691Z,27.55
2022-07-31T15:01:26.915Z,27.30
2022-07-31T15:03:58.208Z,26.99
2022-07-31T15:06:41.512Z,27.34
2022-07-31T15:09:15.024Z,27.28
2022-07-31T15:12:00.969Z,27.66
2022-07-31T15:14:29.827Z,27.34
2022-07-31T15:16:57.087Z,27.46
2022-07-31T15:19:25.361Z,27.00
2022-07-31T15:22:15.747Z,27.13
2022-07-31T15:24:45.534Z,26.97
2022-07-31T15:27:15.910Z,26.55
2022-07-31T15:30:05.865Z,26.33
2022-07-31T15:32:29.890Z,26.42
2022-07-31T15:34:57.594Z,26.12
2022-07-31T15:37:24.330Z,25.61
2022-07-31T15:40:02.198Z,25.80
2022-07-31T15:42:33.346Z,25.86
2022-07-31T15:45:01.206Z,25.90
2022-07-31T15:47:28.224Z,25.94
2022-07-31T15:49:55.487Z,25.82
2022-07-31T15:52:22.711Z,25.64
2022-07-31T15:54:51.688Z,25.29
2022-07-31T15:57:23.821Z,25.36
2022-07-31T15:59:54.475Z,24.90
2022-07-31T16:02:22.456Z,25.07
2022-07-31T16:04:53.455Z,24.93
2022-07-31T16:08:29.640Z,24.79
2022-07-31T16:10:15.185Z,24.70
2022-07-31T16:12:47.987Z,24.69
2022-07-31T16:15:16.542Z,24.73
2022-07-31T16:17:44.092Z,24.84
2022-07-31T16:20:26.684Z,24.80
2022-07-31T16:22:55.966Z,24.79
2022-07-31T16:25:24.129Z,24.74
2022-07-31T16:27:50.853Z,24.72
2022-07-31T16:30:17.693Z,24.68
2022-07-31T16:32:44.973Z,24.40
2022-07-31T16:35:12.578Z,24.23
2022-07-31T16:37:50.252Z,24.35
2022-07-31T16:40:30.104Z,24.13
2022-07-31T16:43:50.053Z,24.25
2022-07-31T16:45:52.104Z,24.26
2022-07-31T16:48:19.155Z,24.33
2022-07-31T16:50:48.129Z,24.15
2022-07-31T16:54:11.135Z,24.18
2022-07-31T16:56:12.159Z,24.09
2022-07-31T16:58:39.463Z,23.81
2022-07-31T17:01:53.231Z,23.88
2022-07-31T17:04:01.917Z,23.77
2022-07-31T17:06:34.722Z,23.87
2022-07-31T17:09:16.241Z,23.94
2022-07-31T17:11:48.410Z,23.90
2022-07-31T17:14:16.147Z,23.86
2022-07-31T17:16:47.096Z,23.72
2022-07-31T17:19:16.816Z,23.74
2022-07-31T17:22:04.831Z,23.84
2022-07-31T17:24:31.815Z,23.89
2022-07-31T17:26:59.723Z,23.84
2022-07-31T17:29:26.711Z,23.75
2022-07-31T17:31:53.507Z,23.76
2022-07-31T17:34:20.226Z,23.67
2022-07-31T17:36:50.033Z,23.62
2022-07-31T17:39:17.071Z,23.52
2022-07-31T17:41:44.117Z,23.35
2022-07-31T17:44:11.034Z,23.35
2022-07-31T17:46:43.877Z,23.41
2022-07-31T17:49:20.559Z,23.39
2022-07-31T17:51:58.869Z,23.31
2022-07-31T17:54:35.050Z,23.29
2022-07-31T17:57:02.553Z,23.26
2022-07-31T17:59:30.387Z,23.37
2022-07-31T18:02:01.103Z,23.21
2022-07-31T18:04:29.532Z,23.17
2022-07-31T18:06:57.632Z,23.10
2022-07-31T18:09:25.065Z,23.06
2022-07-31T18:11:52.674Z,23.08
2022-07-31T18:14:20.112Z,22.92
2022-07-31T18:16:47.522Z,22.79
2022-07-31T18:19:14.669Z,22.87
2022-07-31T18:21:41.617Z,22.77
2022-07-31T18:24:08.702Z,22.53
2022-07-31T18:26:36.077Z,22.28
2022-07-31T18:29:03.575Z,22.07
2022-07-31T18:31:34.394Z,21.97
2022-07-31T18:34:04.471Z,21.74
2022-07-31T18:36:33.052Z,21.62
2022-07-31T18:38:59.973Z,21.50
2022-07-31T18:41:27.479Z,21.29
2022-07-31T18:43:54.825Z,21.20
2022-07-31T18:46:23.678Z,21.28
2022-07-31T18:48:55.421Z,21.02
2022-07-31T18:51:24.003Z,20.93
2022-07-31T18:53:51.488Z,20.86
2022-07-31T18:56:21.340Z,20.74
2022-07-31T18:58:48.221Z,20.58
2022-07-31T19:01:15.026Z,20.40
2022-07-31T19:03:41.722Z,20.41
2022-07-31T19:06:08.591Z,20.37
2022-07-31T19:08:35.236Z,20.34
2022-07-31T19:11:02.081Z,20.24
2022-07-31T19:13:29.223Z,20.16
2022-07-31T19:15:56.487Z,20.06
2022-07-31T19:18:28.670Z,20.00
2022-07-31T19:21:21.254Z,19.95
2022-07-31T19:23:43.977Z,19.87
2022-07-31T19:26:11.040Z,19.87
2022-07-31T19:28:39.549Z,19.85
2022-07-31T19:31:07.287Z,19.73
2022-07-31T19:33:34.085Z,19.69
2022-07-31T19:36:02.861Z,19.65
2022-07-31T19:38:31.903Z,19.51
2022-07-31T19:40:59.529Z,19.58
2022-07-31T19:43:26.571Z,19.55
2022-07-31T19:46:09.678Z,19.53
2022-07-31T19:48:43.815Z,19.46
2022-07-31T19:51:11.611Z,19.41
2022-07-31T19:53:39.384Z,19.42
2022-07-31T19:56:06.624Z,19.33
2022-07-31T19:58:35.067Z,19.33
2022-07-31T20:01:03.197Z,19.35
2022-07-31T20:03:30.248Z,19.36
2022-07-31T20:05:57.732Z,19.30
2022-07-31T20:08:24.467Z,19.31
2022-07-31T20:10:51.666Z,19.32
2022-07-31T20:13:19.262Z,19.32
2022-07-31T20:15:51.939Z,19.27
2022-07-31T20:18:27.603Z,19.27
2022-07-31T20:20:57.479Z,19.26
2022-07-31T20:23:25.586Z,19.25
2022-07-31T20:25:52.417Z,19.26
2022-07-31T20:28:19.368Z,19.21
2022-07-31T20:30:46.457Z,19.18
2022-07-31T20:33:13.636Z,19.18
2022-07-31T20:35:48.051Z,19.14
2022-07-31T20:38:21.594Z,19.09
2022-07-31T20:40:53.588Z,19.14
2022-07-31T20:43:26.765Z,19.07
2022-07-31T20:45:57.267Z,19.13
2022-07-31T20:48:31.120Z,19.02
2022-07-31T20:51:03.412Z,19.14
2022-07-31T20:53:30.819Z,19.05
2022-07-31T20:55:58.705Z,19.03
2022-07-31T20:58:26.567Z,19.00
2022-07-31T21:00:54.230Z,19.00
2022-07-31T21:03:21.376Z,19.01
2022-07-31T21:05:48.356Z,18.93
2022-07-31T21:08:16.157Z,18.95
2022-07-31T21:10:43.052Z,18.92
2022-07-31T21:13:10.224Z,18.88
2022-07-31T21:15:43.828Z,18.82
2022-07-31T21:18:16.179Z,18.86
2022-07-31T21:20:51.197Z,18.91
2022-07-31T21:23:23.745Z,18.91
2022-07-31T21:25:54.608Z,18.83
2022-07-31T21:28:22.136Z,18.84
2022-07-31T21:30:49.760Z,18.80
2022-07-31T21:33:18.291Z,18.82
2022-07-31T21:35:46.396Z,18.82
2022-07-31T21:38:15.649Z,18.99
2022-07-31T21:40:43.358Z,18.86
2022-07-31T21:43:10.348Z,18.84
2022-07-31T21:45:50.325Z,18.96
2022-07-31T21:48:23.375Z,19.03
2022-07-31T21:50:50.880Z,19.11
2022-07-31T21:53:17.675Z,18.89
2022-07-31T21:55:44.452Z,18.79
2022-07-31T21:58:11.414Z,18.80
2022-07-31T22:00:38.335Z,18.78
2022-07-31T22:03:05.750Z,18.80
2022-07-31T22:05:52.015Z,18.80
2022-07-31T22:08:19.712Z,18.80
2022-07-31T22:10:49.125Z,18.74
2022-07-31T22:13:15.878Z,18.72
2022-07-31T22:15:50.419Z,18.74
2022-07-31T22:18:31.000Z,18.73
2022-07-31T22:20:58.758Z,18.84
2022-07-31T22:23:26.998Z,18.79
2022-07-31T22:25:54.327Z,18.77
2022-07-31T22:28:23.085Z,18.81
2022-07-31T22:30:50.907Z,18.82
2022-07-31T22:33:18.482Z,18.59
2022-07-31T22:35:58.604Z,18.67
2022-07-31T22:38:29.410Z,18.64
2022-07-31T22:40:56.747Z,18.71
2022-07-31T22:44:10.751Z,18.74
2022-07-31T22:46:13.917Z,18.76
2022-07-31T22:48:41.204Z,18.78
2022-07-31T22:51:09.056Z,18.77
2022-07-31T22:53:37.596Z,18.67
2022-07-31T22:56:04.550Z,18.65
2022-07-31T22:58:31.412Z,18.66
2022-07-31T23:00:58.058Z,18.67
2022-07-31T23:03:24.871Z,18.69
2022-07-31T23:06:02.872Z,18.68
2022-07-31T23:08:38.518Z,18.69
2022-07-31T23:11:05.359Z,18.74
2022-07-31T23:13:32.115Z,18.77
2022-07-31T23:15:59.523Z,18.70
2022-07-31T23:18:26.566Z,18.76
2022-07-31T23:20:53.326Z,18.81
2022-07-31T23:23:20.056Z,18.68
2022-07-31T23:25:46.758Z,18.71
2022-07-31T23:28:13.470Z,18.70
2022-07-31T23:30:40.411Z,18.76
2022-07-31T23:33:07.156Z,18.76
2022-07-31T23:35:33.941Z,18.72
2022-07-31T23:38:00.825Z,18.70
2022-07-31T23:40:27.713Z,18.68
2022-07-31T23:42:54.618Z,18.65
2022-07-31T23:45:23.399Z,18.59
2022-07-31T23:47:50.925Z,18.59
2022-07-31T23:50:17.935Z,18.56
2022-07-31T23:52:45.461Z,18.61
2022-07-31T23:55:13.160Z,18.54
2022-07-31T23:57:40.683Z,18.49
